Ana Sayfa
METAR-TAF:

METAR-TAF

Havaalanları :

Mahikeng, Güney Afrika

Enlem: 25-47S, Boylam: 025-32E, yükseklik: 1281 m

Güncel hava durumu gözlemi

Rapor saat 16:00 UTC de 1 saat ve 4 dakika önce yapıldı.
Rüzgar doğu/güneydoğudan 4 kt
Sıcaklık 29°C
Nem 40%
Basınç 1015 hPa
Görüş mesafesi 10 km veya daha fazla
1500 m altında bulut yok ve kümülonimbus yok

METAR: FAMM 181600Z 12004KT CAVOK 29/14 Q1015 NOSIG

Saat: 19:04 (17:04 UTC)

Tahmin

Rapor saat 10:43 UTC de 6 saat ve 21 dakika önce yapıldı.
Ayın 18'si saat 10 UTC'den ayın 18'si saat 18 UTC'ye kadar geçerli Tahmin
Rüzgar kuzeybatıdan 13 kt
Görüş mesafesi 10 km veya daha fazla
5000 ft yükseklikte az bulutlu, Yükselen kümülüs.
Geçici
ayın 18'si saat 11 UTC'den ayın 18'si saat 16 UTC'ye kadar
Görüş mesafesi: 5000 m
4000 ft yükseklikte az bulutlu, Kümülonimbus.
gök gürültülü fırtına, yağmur

TAF: FAMM 181043Z 1810/1818 32013KT 9999 FEW050TCU TEMPO 1811/1816 5000 TSRA FEW040CB TX36/1813Z TN29/1818Z

4.000'den fazla havaalanı için hava durumu gözlemleri ve tahminleri (METAR ve TAF raporları).

Kullanılabilir istasyonlar harita üzerinde sarı ve kırmızı noktalarla gösterilir.

İstasyonun adını görmek için fareyi noktanın üzerinde gezdirin.

Sonrasında hava gözlem ve tahminlerini görmek için tıklayın.

Haritayı değiştirmek için: yaklaştırmak için siyah artı işaretli yeşil düğmeye ve uzaklaştırmak için de eksi işaretli düğmeye hızla tıklayın; bitişik haritalar için yeşil okları kullanın.


METAR-TAF: